Jacksonville, VT (05342)

10:56 PM EDT on July 28, 2016 (GMT -0400)
South of the Village | | Change Station

Elev 1545 ft 42.76 °N, 72.81 °W | Updated 1 minute ago

Mostly Cloudy
Mostly Cloudy
66.4 °F
Feels Like 66.4 °F
N
2.2
Wind Variable Wind from West
Gusts 2.2 mph

Today
High -- | Low -- °F
--% Chance of Precip.
Yesterday
High -- | Low -- °F
Precip. -- in
Pressure 29.90 in
Visibility 10.0 miles
Clouds Mostly Cloudy 11000 ft
Dew Point 61 °F
Humidity 82%
Rainfall --
Snow Depth Not available.
5:39 AM 8:15 PM
Waning Crescent, 26% visible
METAR KAQW 290252Z AUTO 02004KT 10SM BKN110 19/17 A2991 RMK AO2 SLP124 T01940172 53003
Pressure 29.90 in
Visibility 10.0 miles
Clouds Mostly Cloudy 11000 ft
Dew Point 61 °F
Humidity 82%
Rainfall --
Snow Depth Not available.
5:39 AM 8:15 PM
Waning Crescent, 26% visible
METAR KAQW 290252Z AUTO 02004KT 10SM BKN110 19/17 A2991 RMK AO2 SLP124 T01940172 53003

10-Day Weather Forecast

Almanac

Astronomy

Jul. 28, 2016 Rise Set
Actual Time
Civil Twilight
Nautical Twilight
Astronomical Twilight
Moon
Length of Visible Light
Length of Day
Tomorrow will be .
, % of the Moon is Illuminated

Today's Extremes

State Highs State Lows

Community

WunderPhotos

Upload Photos

1,928,274 photos uploaded!

WunderBlog® & News

Nearby

Air Quality

  Air Quality AQ Index Pollutant
Not available.

Snow Depth

Station Depth Elevation

Earthquake Activity

City Distance Mag. Time & Date
Minimum magnitude displayed is 2.5.

Coastal Water Temperatures

Place Temperature

Stations

Nearby Weather Stations

Station Location Temp. Windchill Dew Point Humidity Wind Precip. Elev Updated Type
                   

Watches & Warnings

There are currently no watches in effect.